Angus, Minnesota
Current Conditions -  °F | °C
As of 10:14 AM on Monday 22 Dec 2014 (Local Time) from KCKN Reporting Station
Haze Haze  
Wind Chill: 28°   Ceiling: 1400
Heat Index: 36°   Visibility: 2mi
Dew Point: 36°   Wind: 10mph
Humidity: 100%   Direction: 110°ESE
Pressure: 29.56"   Gusts: NA
Location:  48.08°N, 96.7°W
Report Text: KCKN 221614Z AUTO 11009KT 2SM BR OVC014 02/02 A2956 RMK AO2
Loading
Personal Weather Stations






























Interactive Weather Map New forecast layout! Learn more

10-Day Weather Forecast

Advertisements
Track Severe Weather on mobile